Angler Guide Weather for Fort Smith -
Fort Smith, Northwest Territories Current Weather Conditions
Enter your "Place, State", US Zip Code or ICAO:  
Forecast Information Radar Information
Fort Smith, Northwest Territories, Canada  Lat: 60.02N, Lon: 111.92W
ICAO Used: CYPY
Current Conditions
Updated:
Sun & Moon Information:
Temp: N/A
Humidity: N/A
Wind Speed: N/A
Barometer: N/A
Dewpoint: N/A
Heat Index: N/A
Wind Chill: N/A
Civil Twilight: 7:32 AM MDT
Moonrise: 7:46 AM MDT Moon Phase:
New Moon
New Moon
Moonset: 6:39 PM MDT
Sunrise: 8:15 AM MDT
Sunset: 6:07 PM MDT
Civil Twilight: 6:50 PM MDT
Forecast for Fort Smith, NT:
(Forecast based on TAF for )
1240 PM MDT MON NOV 06 2006
  
AFTERNOONEVENINGOVERNIGHTMORNING
LIGHT SNOWLIGHT SNOWLIGHT SNOWLIGHT SNOW
Light
Snow
Light
Snow
Light
Snow
Light
Snow
TAF based forecast:
Dated: 1240 PM MDT MON NOV 06 2006
Afternoon...Overcast with light snow with winds from the north west at 6 mph. Possible periods of overcast with light snow and mist.
Evening...Overcast with light snow with winds from the north west at 6 mph.
Overnight...Overcast with light snow with winds from the north west at 6 mph.
Morning...Overcast with light snow with winds from the north west at 6 mph.
Original Encoded TAF:
Dated: 1240 PM MDT MON NOV 06 2006
2006/11/06 18:40
CYPY 061840Z 061922 30005KT P6SM -SN OVC025 TEMPO 1922 21/2SM -SN BR OVC020=




Powered by Angler Guide.com
Copyright 2007, all rights reserved.